Terminal Aerodrome Forecast
Issued by NWS

Home | Current Version | Previous Version | Text Only | Print | Product List | Glossary Off
Versions: 1 2 3 4 5 6 7 8 9 10 11 12 13 14 15 16 17 18

000
FTUS43 KMPX 240203 AAA
TAFRNH
TAF AMD
KRNH 240203Z 2402/2424 27006KT P6SM BKN035
     FM240500 28006KT P6SM BKN050 BKN150
     FM241800 28005KT P6SM OVC018=

USA.gov is the U.S. government's official web portal to all federal, state and local government web resources and services.